Bahia Uno — ECFT — position and weather

sailwx.info

Track history (hours):
 
Tides and Currents Weather Stations Pressure Air Temp Water Temp Dewpoint Dewpoint Depression Visibility Wind Speed Wind Dir Waves Ship Positions

Bahia Uno

Last reported at 2016-Jul-01 16:33 UTC. Time now 2016-Jul-01 17:18 UTC.
Position N 36°07' W 005°25'.

Length 70 m; draft 5.5 m.

Type: Ship. MMSI: 224127820.

Date/timePositionNaut miles runAvg speedWind from/ knotsBaromVisibWave heightAir tempDewpointWater temp
2016-Jul-01 16:33N 36°07' W 005°25'0 0.1
2016-Jul-01 15:33N 36°07' W 005°25'0 0.1
2016-Jul-01 14:34N 36°06' W 005°25'0 0.1
2016-Jul-01 13:34N 36°07' W 005°25'0 0.1
2016-Jul-01 12:32N 36°07' W 005°25'1 0.6
2016-Jul-01 11:33N 36°06' W 005°24'0 0.3
2016-Jul-01 10:30N 36°06' W 005°24'0 0.0
2016-Jul-01 09:24N 36°06' W 005°25'0 0.1
2016-Jul-01 08:33N 36°06' W 005°25'3 0.9
2016-Jul-01 05:29N 36°08' W 005°26'0 0.0
2016-Jul-01 04:32N 36°08' W 005°26'0 0.0
2016-Jul-01 03:33N 36°08' W 005°26'0 0.0
2016-Jul-01 02:33N 36°08' W 005°26'0 0.0
2016-Jul-01 01:34N 36°08' W 005°26'0 0.0
2016-Jul-01 00:33N 36°08' W 005°26'0 0.0
2016-Jun-30 23:21N 36°08' W 005°26'0 0.0
2016-Jun-30 22:33N 36°08' W 005°26'1 0.3
2016-Jun-30 20:33N 36°09' W 005°26'2 1.7
2016-Jun-30 19:33N 36°10' W 005°24'0 0.1
2016-Jun-30 18:33N 36°10' W 005°24'1 0.2
2016-Jun-30 15:25N 36°10' W 005°25'0 0.0
2016-Jun-30 14:32N 36°10' W 005°25'0 0.1
2016-Jun-30 12:24N 36°10' W 005°25'0 0.1
2016-Jun-30 11:33N 36°10' W 005°25'1 0.7
2016-Jun-30 10:28N 36°09' W 005°25'0 0.1
2016-Jun-30 09:07N 36°09' W 005°25'0 0.0
2016-Jun-30 08:27N 36°09' W 005°25'0 0.3
2016-Jun-30 07:33N 36°09' W 005°25'1 0.2
2016-Jun-30 04:34N 36°09' W 005°26'0 0.0
2016-Jun-30 03:30N 36°09' W 005°26'0 0.0
2016-Jun-30 02:33N 36°09' W 005°26'0 0.0
2016-Jun-30 01:23N 36°09' W 005°26'0 0.0
2016-Jun-30 00:15N 36°09' W 005°26'1 1.7
2016-Jun-29 23:34N 36°08' W 005°25'0 0.0
2016-Jun-29 22:32N 36°08' W 005°25'0 0.0
2016-Jun-29 21:22N 36°08' W 005°25'0 0.0
2016-Jun-29 20:34N 36°08' W 005°25'0 0.2
2016-Jun-29 19:33N 36°07' W 005°25'1 1.4
2016-Jun-29 18:33N 36°06' W 005°25'0 0.0
2016-Jun-29 17:33N 36°06' W 005°25'0 0.0
2016-Jun-29 16:33N 36°06' W 005°25'0 0.1
2016-Jun-29 15:33N 36°06' W 005°25'0 0.0
2016-Jun-29 14:33N 36°06' W 005°25'4 3.6
2016-Jun-29 13:33N 36°10' W 005°26'0 0.0
2016-Jun-29 10:06N 36°10' W 005°26'2 3.8
2016-Jun-29 09:33N 36°08' W 005°25'0 0.2
2016-Jun-29 07:31N 36°07' W 005°25'1 0.6
2016-Jun-29 06:33N 36°07' W 005°25'2 1.7
2016-Jun-29 05:33N 36°08' W 005°26'0 0.0
2016-Jun-29 04:33N 36°08' W 005°26'0 0.0
2016-Jun-29 03:31N 36°08' W 005°26'0 0.0
2016-Jun-29 02:31N 36°08' W 005°26'0 0.0
2016-Jun-29 01:33N 36°08' W 005°26'0 0.0
2016-Jun-29 00:34N 36°08' W 005°26'0 0.0
2016-Jun-28 23:27N 36°08' W 005°26'0 0.0
2016-Jun-28 22:33N 36°08' W 005°26'0 0.0
2016-Jun-28 21:23N 36°08' W 005°26'0 0.0
2016-Jun-28 20:04N 36°08' W 005°26'1 2.0
2016-Jun-28 19:33N 36°08' W 005°25'2 2.3
2016-Jun-28 18:34N 36°05' W 005°25'0 0.0
2016-Jun-28 17:10N 36°05' W 005°25'2 3.2
2016-Jun-28 16:29N 36°07' W 005°25'1 0.8
2016-Jun-28 15:14N 36°08' W 005°26'0 0.0
2016-Jun-28 11:19N 36°08' W 005°26'0 0.4
2016-Jun-28 10:29N 36°08' W 005°26'1 0.1
2016-Jun-28 04:05N 36°09' W 005°26'1 1.6
2016-Jun-28 03:33N 36°08' W 005°26'0 0.0
2016-Jun-28 02:33N 36°08' W 005°26'0 0.0
2016-Jun-28 01:33N 36°08' W 005°26'0 0.0
2016-Jun-27 19:16N 36°08' W 005°26'1 0.3
2016-Jun-27 15:24N 36°10' W 005°26'1 1.3
2016-Jun-27 14:32N 36°08' W 005°26'0 0.0
2016-Jun-27 04:33N 36°08' W 005°26'0 0.0
2016-Jun-27 00:05N 36°08' W 005°26'0 0.0
2016-Jun-26 23:33N 36°08' W 005°26'0 0.0
2016-Jun-26 22:31N 36°08' W 005°26'0 0.0
2016-Jun-26 21:33N 36°08' W 005°26'0 0.0
2016-Jun-26 19:12N 36°08' W 005°26'0 0.0
2016-Jun-26 18:23N 36°08' W 005°26'0 0.0
2016-Jun-26 13:28N 36°08' W 005°26'0 0.0
2016-Jun-26 06:10N 36°08' W 005°26'0 0.2
2016-Jun-26 04:22N 36°08' W 005°26'0 0.0
2016-Jun-26 03:13N 36°08' W 005°26'0 0.0
2016-Jun-26 01:32N 36°08' W 005°26'0 0.1
2016-Jun-26 00:25N 36°08' W 005°26'3 3.9
2016-Jun-25 23:32N 36°05' W 005°25'0 0.0
2016-Jun-25 22:28N 36°05' W 005°25'0 0.2
2016-Jun-25 21:33N 36°05' W 005°24'0 0.1
2016-Jun-25 20:33N 36°05' W 005°24'0 0.0
2016-Jun-25 19:34N 36°05' W 005°25'0 0.0
2016-Jun-25 18:33N 36°05' W 005°25'0 0.4
2016-Jun-25 17:33N 36°06' W 005°24'0 0.0
2016-Jun-25 16:34N 36°06' W 005°24'0 0.1
2016-Jun-25 15:33N 36°06' W 005°24'0 0.1
2016-Jun-25 14:33N 36°06' W 005°24'0 0.0
2016-Jun-25 13:34N 36°06' W 005°24'3 2.6
2016-Jun-25 12:33N 36°08' W 005°25'1 0.7
2016-Jun-25 11:32N 36°08' W 005°26'0 0.0
2016-Jun-25 10:30N 36°08' W 005°26'0 0.0
2016-Jun-25 09:29N 36°08' W 005°26'3 3.4
2016-Jun-25 08:33N 36°05' W 005°25'0 0.2
2016-Jun-25 07:33N 36°05' W 005°25'0 0.0
2016-Jun-25 06:33N 36°05' W 005°25'1 0.7
2016-Jun-25 05:32N 36°06' W 005°25'1 0.6
2016-Jun-25 04:33N 36°06' W 005°25'0 0.0
2016-Jun-25 03:33N 36°06' W 005°25'0 0.1
2016-Jun-25 02:33N 36°06' W 005°25'0 0.0
2016-Jun-25 01:33N 36°06' W 005°25'0 0.1
2016-Jun-25 00:34N 36°06' W 005°25'0 0.1
2016-Jun-24 23:34N 36°06' W 005°25'2 2.0
2016-Jun-24 22:34N 36°08' W 005°26'0 0.0
2016-Jun-24 21:33N 36°08' W 005°26'0 0.0
2016-Jun-24 20:34N 36°08' W 005°26'0 0.0
2016-Jun-24 19:33N 36°08' W 005°26'0 0.0
2016-Jun-24 18:33N 36°08' W 005°26'3 2.5
2016-Jun-24 17:33N 36°06' W 005°25'0 0.0
2016-Jun-24 16:33N 36°06' W 005°25'0 0.0
2016-Jun-24 15:33N 36°06' W 005°25'3 0.7
2016-Jun-24 11:05N 36°09' W 005°26'0 0.1
2016-Jun-24 04:33N 36°08' W 005°26'0 0.0
2016-Jun-24 03:34N 36°08' W 005°26'0 0.0
2016-Jun-24 02:33N 36°08' W 005°26'0 0.0
2016-Jun-24 01:33N 36°08' W 005°26'0 0.0
2016-Jun-24 00:34N 36°08' W 005°26'0 0.0
2016-Jun-23 23:25N 36°08' W 005°26'0 0.0
2016-Jun-23 22:06N 36°08' W 005°26'1 1.4
2016-Jun-23 21:33N 36°08' W 005°26'0 0.0
2016-Jun-23 20:32N 36°08' W 005°26'0 0.5
2016-Jun-23 19:33N 36°08' W 005°26'1 0.2
2016-Jun-23 16:31N 36°08' W 005°25'2 1.7
2016-Jun-23 15:20N 36°06' W 005°24'0 0.0
2016-Jun-23 12:28N 36°06' W 005°24'2 0.3
2016-Jun-23 05:18N 36°08' W 005°26'0 0.0
2016-Jun-23 04:19N 36°08' W 005°26'0 0.1
2016-Jun-23 03:26N 36°08' W 005°26'0 0.0
2016-Jun-23 02:33N 36°08' W 005°26'0 0.0
2016-Jun-23 00:33N 36°08' W 005°26'2 2.5
2016-Jun-22 23:34N 36°06' W 005°24'0 0.0
2016-Jun-22 22:32N 36°06' W 005°24'0 0.0
2016-Jun-22 21:33N 36°06' W 005°24'3 2.3
2016-Jun-22 20:16N 36°09' W 005°26'2 0.4
2016-Jun-22 16:32N 36°08' W 005°24'1 0.4
2016-Jun-22 14:12N 36°08' W 005°25'2 1.8
2016-Jun-22 13:12N 36°06' W 005°24'0 0.0
2016-Jun-22 11:18N 36°06' W 005°24'0 0.3
2016-Jun-22 09:32N 36°06' W 005°25'0 0.0
2016-Jun-22 08:32N 36°06' W 005°25'3 2.8
2016-Jun-22 07:24N 36°09' W 005°26'1 0.9
2016-Jun-22 06:33N 36°08' W 005°26'0 0.0
2016-Jun-22 03:27N 36°08' W 005°26'0 0.0
2016-Jun-21 19:33N 36°08' W 005°26'  
Track history (hours):
 
Tides and Currents Weather Stations Pressure Air Temp Water Temp Dewpoint Dewpoint Depression Visibility Wind Speed Wind Dir Waves Ship Positions

Bahia Uno

Last reported at 2016-Jul-01 16:33 UTC. Time now 2016-Jul-01 17:18 UTC.
Position N 36°07' W 005°25'.

Length 70 m; draft 5.5 m.

Type: Ship. MMSI: 224127820.

Date/timePositionNaut miles runAvg speedWind from/ knotsBaromVisibWave heightAir tempDewpointWater temp
2016-Jul-01 16:33N 36°07' W 005°25'0 0.1
2016-Jul-01 15:33N 36°07' W 005°25'0 0.1
2016-Jul-01 14:34N 36°06' W 005°25'0 0.1
2016-Jul-01 13:34N 36°07' W 005°25'0 0.1
2016-Jul-01 12:32N 36°07' W 005°25'1 0.6
2016-Jul-01 11:33N 36°06' W 005°24'0 0.3
2016-Jul-01 10:30N 36°06' W 005°24'0 0.0
2016-Jul-01 09:24N 36°06' W 005°25'0 0.1
2016-Jul-01 08:33N 36°06' W 005°25'3 0.9
2016-Jul-01 05:29N 36°08' W 005°26'0 0.0
2016-Jul-01 04:32N 36°08' W 005°26'0 0.0
2016-Jul-01 03:33N 36°08' W 005°26'0 0.0
2016-Jul-01 02:33N 36°08' W 005°26'0 0.0
2016-Jul-01 01:34N 36°08' W 005°26'0 0.0
2016-Jul-01 00:33N 36°08' W 005°26'0 0.0
2016-Jun-30 23:21N 36°08' W 005°26'0 0.0
2016-Jun-30 22:33N 36°08' W 005°26'1 0.3
2016-Jun-30 20:33N 36°09' W 005°26'2 1.7
2016-Jun-30 19:33N 36°10' W 005°24'0 0.1
2016-Jun-30 18:33N 36°10' W 005°24'1 0.2
2016-Jun-30 15:25N 36°10' W 005°25'0 0.0
2016-Jun-30 14:32N 36°10' W 005°25'0 0.1
2016-Jun-30 12:24N 36°10' W 005°25'0 0.1
2016-Jun-30 11:33N 36°10' W 005°25'1 0.7
2016-Jun-30 10:28N 36°09' W 005°25'0 0.1
2016-Jun-30 09:07N 36°09' W 005°25'0 0.0
2016-Jun-30 08:27N 36°09' W 005°25'0 0.3
2016-Jun-30 07:33N 36°09' W 005°25'1 0.2
2016-Jun-30 04:34N 36°09' W 005°26'0 0.0
2016-Jun-30 03:30N 36°09' W 005°26'0 0.0
2016-Jun-30 02:33N 36°09' W 005°26'0 0.0
2016-Jun-30 01:23N 36°09' W 005°26'0 0.0
2016-Jun-30 00:15N 36°09' W 005°26'1 1.7
2016-Jun-29 23:34N 36°08' W 005°25'0 0.0
2016-Jun-29 22:32N 36°08' W 005°25'0 0.0
2016-Jun-29 21:22N 36°08' W 005°25'0 0.0
2016-Jun-29 20:34N 36°08' W 005°25'0 0.2
2016-Jun-29 19:33N 36°07' W 005°25'1 1.4
2016-Jun-29 18:33N 36°06' W 005°25'0 0.0
2016-Jun-29 17:33N 36°06' W 005°25'0 0.0
2016-Jun-29 16:33N 36°06' W 005°25'0 0.1
2016-Jun-29 15:33N 36°06' W 005°25'0 0.0
2016-Jun-29 14:33N 36°06' W 005°25'4 3.6
2016-Jun-29 13:33N 36°10' W 005°26'0 0.0
2016-Jun-29 10:06N 36°10' W 005°26'2 3.8
2016-Jun-29 09:33N 36°08' W 005°25'0 0.2
2016-Jun-29 07:31N 36°07' W 005°25'1 0.6
2016-Jun-29 06:33N 36°07' W 005°25'2 1.7
2016-Jun-29 05:33N 36°08' W 005°26'0 0.0
2016-Jun-29 04:33N 36°08' W 005°26'0 0.0
2016-Jun-29 03:31N 36°08' W 005°26'0 0.0
2016-Jun-29 02:31N 36°08' W 005°26'0 0.0
2016-Jun-29 01:33N 36°08' W 005°26'0 0.0
2016-Jun-29 00:34N 36°08' W 005°26'0 0.0
2016-Jun-28 23:27N 36°08' W 005°26'0 0.0
2016-Jun-28 22:33N 36°08' W 005°26'0 0.0
2016-Jun-28 21:23N 36°08' W 005°26'0 0.0
2016-Jun-28 20:04N 36°08' W 005°26'1 2.0
2016-Jun-28 19:33N 36°08' W 005°25'2 2.3
2016-Jun-28 18:34N 36°05' W 005°25'0 0.0
2016-Jun-28 17:10N 36°05' W 005°25'2 3.2
2016-Jun-28 16:29N 36°07' W 005°25'1 0.8
2016-Jun-28 15:14N 36°08' W 005°26'0 0.0
2016-Jun-28 11:19N 36°08' W 005°26'0 0.4
2016-Jun-28 10:29N 36°08' W 005°26'1 0.1
2016-Jun-28 04:05N 36°09' W 005°26'1 1.6
2016-Jun-28 03:33N 36°08' W 005°26'0 0.0
2016-Jun-28 02:33N 36°08' W 005°26'0 0.0
2016-Jun-28 01:33N 36°08' W 005°26'0 0.0
2016-Jun-27 19:16N 36°08' W 005°26'1 0.3
2016-Jun-27 15:24N 36°10' W 005°26'1 1.3
2016-Jun-27 14:32N 36°08' W 005°26'0 0.0
2016-Jun-27 04:33N 36°08' W 005°26'0 0.0
2016-Jun-27 00:05N 36°08' W 005°26'0 0.0
2016-Jun-26 23:33N 36°08' W 005°26'0 0.0
2016-Jun-26 22:31N 36°08' W 005°26'0 0.0
2016-Jun-26 21:33N 36°08' W 005°26'0 0.0
2016-Jun-26 19:12N 36°08' W 005°26'0 0.0
2016-Jun-26 18:23N 36°08' W 005°26'0 0.0
2016-Jun-26 13:28N 36°08' W 005°26'0 0.0
2016-Jun-26 06:10N 36°08' W 005°26'0 0.2
2016-Jun-26 04:22N 36°08' W 005°26'0 0.0
2016-Jun-26 03:13N 36°08' W 005°26'0 0.0
2016-Jun-26 01:32N 36°08' W 005°26'0 0.1
2016-Jun-26 00:25N 36°08' W 005°26'3 3.9
2016-Jun-25 23:32N 36°05' W 005°25'0 0.0
2016-Jun-25 22:28N 36°05' W 005°25'0 0.2
2016-Jun-25 21:33N 36°05' W 005°24'0 0.1
2016-Jun-25 20:33N 36°05' W 005°24'0 0.0
2016-Jun-25 19:34N 36°05' W 005°25'0 0.0
2016-Jun-25 18:33N 36°05' W 005°25'0 0.4
2016-Jun-25 17:33N 36°06' W 005°24'0 0.0
2016-Jun-25 16:34N 36°06' W 005°24'0 0.1
2016-Jun-25 15:33N 36°06' W 005°24'0 0.1
2016-Jun-25 14:33N 36°06' W 005°24'0 0.0
2016-Jun-25 13:34N 36°06' W 005°24'3 2.6
2016-Jun-25 12:33N 36°08' W 005°25'1 0.7
2016-Jun-25 11:32N 36°08' W 005°26'0 0.0
2016-Jun-25 10:30N 36°08' W 005°26'0 0.0
2016-Jun-25 09:29N 36°08' W 005°26'3 3.4
2016-Jun-25 08:33N 36°05' W 005°25'0 0.2
2016-Jun-25 07:33N 36°05' W 005°25'0 0.0
2016-Jun-25 06:33N 36°05' W 005°25'1 0.7
2016-Jun-25 05:32N 36°06' W 005°25'1 0.6
2016-Jun-25 04:33N 36°06' W 005°25'0 0.0
2016-Jun-25 03:33N 36°06' W 005°25'0 0.1
2016-Jun-25 02:33N 36°06' W 005°25'0 0.0
2016-Jun-25 01:33N 36°06' W 005°25'0 0.1
2016-Jun-25 00:34N 36°06' W 005°25'0 0.1
2016-Jun-24 23:34N 36°06' W 005°25'2 2.0
2016-Jun-24 22:34N 36°08' W 005°26'0 0.0
2016-Jun-24 21:33N 36°08' W 005°26'0 0.0
2016-Jun-24 20:34N 36°08' W 005°26'0 0.0
2016-Jun-24 19:33N 36°08' W 005°26'0 0.0
2016-Jun-24 18:33N 36°08' W 005°26'3 2.5
2016-Jun-24 17:33N 36°06' W 005°25'0 0.0
2016-Jun-24 16:33N 36°06' W 005°25'0 0.0
2016-Jun-24 15:33N 36°06' W 005°25'3 0.7
2016-Jun-24 11:05N 36°09' W 005°26'0 0.1
2016-Jun-24 04:33N 36°08' W 005°26'0 0.0
2016-Jun-24 03:34N 36°08' W 005°26'0 0.0
2016-Jun-24 02:33N 36°08' W 005°26'0 0.0
2016-Jun-24 01:33N 36°08' W 005°26'0 0.0
2016-Jun-24 00:34N 36°08' W 005°26'0 0.0
2016-Jun-23 23:25N 36°08' W 005°26'0 0.0
2016-Jun-23 22:06N 36°08' W 005°26'1 1.4
2016-Jun-23 21:33N 36°08' W 005°26'0 0.0
2016-Jun-23 20:32N 36°08' W 005°26'0 0.5
2016-Jun-23 19:33N 36°08' W 005°26'1 0.2
2016-Jun-23 16:31N 36°08' W 005°25'2 1.7
2016-Jun-23 15:20N 36°06' W 005°24'0 0.0
2016-Jun-23 12:28N 36°06' W 005°24'2 0.3
2016-Jun-23 05:18N 36°08' W 005°26'0 0.0
2016-Jun-23 04:19N 36°08' W 005°26'0 0.1
2016-Jun-23 03:26N 36°08' W 005°26'0 0.0
2016-Jun-23 02:33N 36°08' W 005°26'0 0.0
2016-Jun-23 00:33N 36°08' W 005°26'2 2.5
2016-Jun-22 23:34N 36°06' W 005°24'0 0.0
2016-Jun-22 22:32N 36°06' W 005°24'0 0.0
2016-Jun-22 21:33N 36°06' W 005°24'3 2.3
2016-Jun-22 20:16N 36°09' W 005°26'2 0.4
2016-Jun-22 16:32N 36°08' W 005°24'1 0.4
2016-Jun-22 14:12N 36°08' W 005°25'2 1.8
2016-Jun-22 13:12N 36°06' W 005°24'0 0.0
2016-Jun-22 11:18N 36°06' W 005°24'0 0.3
2016-Jun-22 09:32N 36°06' W 005°25'0 0.0
2016-Jun-22 08:32N 36°06' W 005°25'3 2.8
2016-Jun-22 07:24N 36°09' W 005°26'1 0.9
2016-Jun-22 06:33N 36°08' W 005°26'0 0.0
2016-Jun-22 03:27N 36°08' W 005°26'0 0.0
2016-Jun-21 19:33N 36°08' W 005°26'  

Dump ship's entire track history